sensor_id;sensor_type;location;lat;lon;timestamp;P1;durP1;ratioP1;P2;durP2;ratioP2
12271;SDS011;6198;51.446;6.698;2023-05-16T00:02:00;9.50;;;7.20;;
12271;SDS011;6198;51.446;6.698;2023-05-16T00:04:27;8.43;;;5.73;;
12271;SDS011;6198;51.446;6.698;2023-05-16T00:06:53;7.50;;;5.00;;
12271;SDS011;6198;51.446;6.698;2023-05-16T00:09:19;10.00;;;5.85;;
12271;SDS011;6198;51.446;6.698;2023-05-16T00:11:45;9.60;;;5.10;;
12271;SDS011;6198;51.446;6.698;2023-05-16T00:14:12;9.37;;;4.57;;
12271;SDS011;6198;51.446;6.698;2023-05-16T00:16:39;6.63;;;4.10;;
12271;SDS011;6198;51.446;6.698;2023-05-16T00:19:05;10.13;;;4.17;;
12271;SDS011;6198;51.446;6.698;2023-05-16T00:21:32;8.23;;;4.63;;
12271;SDS011;6198;51.446;6.698;2023-05-16T00:23:58;15.40;;;4.93;;
12271;SDS011;6198;51.446;6.698;2023-05-16T00:26:24;8.40;;;4.50;;
12271;SDS011;6198;51.446;6.698;2023-05-16T00:28:50;10.50;;;4.33;;
12271;SDS011;6198;51.446;6.698;2023-05-16T00:31:16;8.63;;;4.30;;
12271;SDS011;6198;51.446;6.698;2023-05-16T00:33:42;9.93;;;4.93;;
12271;SDS011;6198;51.446;6.698;2023-05-16T00:36:08;14.67;;;5.40;;
12271;SDS011;6198;51.446;6.698;2023-05-16T00:38:35;8.30;;;4.83;;
12271;SDS011;6198;51.446;6.698;2023-05-16T00:41:01;13.60;;;5.20;;
12271;SDS011;6198;51.446;6.698;2023-05-16T00:43:28;10.20;;;4.57;;
12271;SDS011;6198;51.446;6.698;2023-05-16T00:45:54;10.37;;;5.77;;
12271;SDS011;6198;51.446;6.698;2023-05-16T00:48:21;10.63;;;6.10;;
12271;SDS011;6198;51.446;6.698;2023-05-16T00:50:48;11.07;;;6.07;;
12271;SDS011;6198;51.446;6.698;2023-05-16T00:53:14;13.90;;;5.70;;
12271;SDS011;6198;51.446;6.698;2023-05-16T00:55:40;13.57;;;6.60;;
12271;SDS011;6198;51.446;6.698;2023-05-16T00:58:07;13.83;;;6.23;;
12271;SDS011;6198;51.446;6.698;2023-05-16T01:00:33;11.90;;;5.73;;
12271;SDS011;6198;51.446;6.698;2023-05-16T01:03:00;16.83;;;5.20;;
12271;SDS011;6198;51.446;6.698;2023-05-16T01:05:26;12.57;;;5.57;;
12271;SDS011;6198;51.446;6.698;2023-05-16T01:07:52;20.23;;;7.97;;
12271;SDS011;6198;51.446;6.698;2023-05-16T01:10:18;11.90;;;5.93;;
12271;SDS011;6198;51.446;6.698;2023-05-16T01:12:52;15.30;;;5.80;;
12271;SDS011;6198;51.446;6.698;2023-05-16T01:20:54;17.77;;;6.03;;
12271;SDS011;6198;51.446;6.698;2023-05-16T01:23:32;11.97;;;4.47;;
12271;SDS011;6198;51.446;6.698;2023-05-16T01:26:17;12.97;;;5.10;;
12271;SDS011;6198;51.446;6.698;2023-05-16T01:28:47;18.47;;;5.20;;
12271;SDS011;6198;51.446;6.698;2023-05-16T01:31:13;15.33;;;6.63;;
12271;SDS011;6198;51.446;6.698;2023-05-16T01:33:40;19.43;;;5.83;;
12271;SDS011;6198;51.446;6.698;2023-05-16T01:36:14;15.33;;;5.70;;
12271;SDS011;6198;51.446;6.698;2023-05-16T01:38:49;20.70;;;5.10;;
12271;SDS011;6198;51.446;6.698;2023-05-16T01:43:58;20.45;;;6.90;;
12271;SDS011;6198;51.446;6.698;2023-05-16T01:46:29;11.03;;;5.23;;
12271;SDS011;6198;51.446;6.698;2023-05-16T01:48:57;17.50;;;5.70;;
12271;SDS011;6198;51.446;6.698;2023-05-16T01:51:27;24.05;;;6.15;;
12271;SDS011;6198;51.446;6.698;2023-05-16T01:53:55;12.27;;;4.80;;
12271;SDS011;6198;51.446;6.698;2023-05-16T01:56:23;15.07;;;5.43;;
12271;SDS011;6198;51.446;6.698;2023-05-16T01:58:50;12.07;;;4.93;;
12271;SDS011;6198;51.446;6.698;2023-05-16T02:01:17;16.67;;;5.23;;
12271;SDS011;6198;51.446;6.698;2023-05-16T02:03:43;16.63;;;5.00;;
12271;SDS011;6198;51.446;6.698;2023-05-16T02:06:09;13.63;;;4.73;;
12271;SDS011;6198;51.446;6.698;2023-05-16T02:08:35;22.33;;;5.60;;
12271;SDS011;6198;51.446;6.698;2023-05-16T02:11:01;25.23;;;6.07;;
12271;SDS011;6198;51.446;6.698;2023-05-16T02:13:27;19.03;;;4.90;;
12271;SDS011;6198;51.446;6.698;2023-05-16T02:15:53;17.10;;;5.53;;
12271;SDS011;6198;51.446;6.698;2023-05-16T02:18:18;19.07;;;5.13;;
12271;SDS011;6198;51.446;6.698;2023-05-16T02:20:44;15.80;;;5.07;;
12271;SDS011;6198;51.446;6.698;2023-05-16T02:23:11;15.57;;;4.30;;
12271;SDS011;6198;51.446;6.698;2023-05-16T02:25:37;15.53;;;5.00;;
12271;SDS011;6198;51.446;6.698;2023-05-16T02:28:03;16.90;;;4.90;;
12271;SDS011;6198;51.446;6.698;2023-05-16T02:30:30;22.50;;;5.53;;
12271;SDS011;6198;51.446;6.698;2023-05-16T02:32:56;19.40;;;6.17;;
12271;SDS011;6198;51.446;6.698;2023-05-16T02:35:22;16.20;;;5.20;;
12271;SDS011;6198;51.446;6.698;2023-05-16T02:37:48;23.07;;;5.17;;
12271;SDS011;6198;51.446;6.698;2023-05-16T02:40:14;16.23;;;5.63;;
12271;SDS011;6198;51.446;6.698;2023-05-16T02:42:40;12.17;;;4.80;;
12271;SDS011;6198;51.446;6.698;2023-05-16T02:45:06;22.30;;;4.87;;
12271;SDS011;6198;51.446;6.698;2023-05-16T02:47:32;24.13;;;4.27;;
12271;SDS011;6198;51.446;6.698;2023-05-16T02:49:58;20.77;;;4.20;;
12271;SDS011;6198;51.446;6.698;2023-05-16T02:52:25;25.40;;;5.90;;
12271;SDS011;6198;51.446;6.698;2023-05-16T02:54:52;19.87;;;5.53;;
12271;SDS011;6198;51.446;6.698;2023-05-16T02:57:18;19.60;;;4.50;;
12271;SDS011;6198;51.446;6.698;2023-05-16T02:59:44;19.00;;;5.00;;
12271;SDS011;6198;51.446;6.698;2023-05-16T03:02:10;19.20;;;4.77;;
12271;SDS011;6198;51.446;6.698;2023-05-16T03:04:36;18.50;;;4.40;;
12271;SDS011;6198;51.446;6.698;2023-05-16T03:07:02;17.03;;;4.87;;
12271;SDS011;6198;51.446;6.698;2023-05-16T03:09:28;25.43;;;5.30;;
12271;SDS011;6198;51.446;6.698;2023-05-16T03:11:54;16.20;;;4.80;;
12271;SDS011;6198;51.446;6.698;2023-05-16T03:14:20;13.17;;;4.43;;
12271;SDS011;6198;51.446;6.698;2023-05-16T03:16:46;21.53;;;4.97;;
12271;SDS011;6198;51.446;6.698;2023-05-16T03:19:12;21.57;;;3.90;;
12271;SDS011;6198;51.446;6.698;2023-05-16T03:21:38;21.13;;;4.47;;
12271;SDS011;6198;51.446;6.698;2023-05-16T03:24:04;23.73;;;5.00;;
12271;SDS011;6198;51.446;6.698;2023-05-16T03:26:30;25.03;;;4.67;;
12271;SDS011;6198;51.446;6.698;2023-05-16T03:28:56;18.93;;;5.00;;
12271;SDS011;6198;51.446;6.698;2023-05-16T03:31:23;25.40;;;4.97;;
12271;SDS011;6198;51.446;6.698;2023-05-16T03:33:49;20.40;;;4.87;;
12271;SDS011;6198;51.446;6.698;2023-05-16T03:36:15;24.47;;;4.60;;
12271;SDS011;6198;51.446;6.698;2023-05-16T03:38:41;14.73;;;4.03;;
12271;SDS011;6198;51.446;6.698;2023-05-16T03:41:07;26.20;;;5.13;;
12271;SDS011;6198;51.446;6.698;2023-05-16T03:43:33;29.03;;;4.93;;
12271;SDS011;6198;51.446;6.698;2023-05-16T03:46:00;23.43;;;4.67;;
12271;SDS011;6198;51.446;6.698;2023-05-16T03:48:26;17.40;;;4.73;;
12271;SDS011;6198;51.446;6.698;2023-05-16T03:50:52;19.17;;;5.17;;
12271;SDS011;6198;51.446;6.698;2023-05-16T03:53:18;25.30;;;5.37;;
12271;SDS011;6198;51.446;6.698;2023-05-16T03:55:44;18.97;;;4.17;;
12271;SDS011;6198;51.446;6.698;2023-05-16T03:58:10;23.20;;;4.90;;
12271;SDS011;6198;51.446;6.698;2023-05-16T04:00:36;19.70;;;4.73;;
12271;SDS011;6198;51.446;6.698;2023-05-16T04:03:02;20.00;;;4.80;;
12271;SDS011;6198;51.446;6.698;2023-05-16T04:05:28;16.73;;;4.43;;
12271;SDS011;6198;51.446;6.698;2023-05-16T04:07:54;22.37;;;4.73;;
12271;SDS011;6198;51.446;6.698;2023-05-16T04:10:20;18.90;;;4.50;;
12271;SDS011;6198;51.446;6.698;2023-05-16T04:12:46;21.10;;;3.90;;
12271;SDS011;6198;51.446;6.698;2023-05-16T04:15:13;23.77;;;4.10;;
12271;SDS011;6198;51.446;6.698;2023-05-16T04:17:39;22.77;;;4.33;;
12271;SDS011;6198;51.446;6.698;2023-05-16T04:20:05;17.50;;;4.73;;
12271;SDS011;6198;51.446;6.698;2023-05-16T04:22:31;18.97;;;4.67;;
12271;SDS011;6198;51.446;6.698;2023-05-16T04:24:57;17.40;;;4.10;;
12271;SDS011;6198;51.446;6.698;2023-05-16T04:27:23;20.30;;;4.17;;
12271;SDS011;6198;51.446;6.698;2023-05-16T04:29:50;13.10;;;3.67;;
12271;SDS011;6198;51.446;6.698;2023-05-16T04:32:16;20.70;;;4.40;;
12271;SDS011;6198;51.446;6.698;2023-05-16T04:34:43;15.10;;;3.83;;
12271;SDS011;6198;51.446;6.698;2023-05-16T04:37:10;19.37;;;3.93;;
12271;SDS011;6198;51.446;6.698;2023-05-16T04:39:36;15.53;;;4.40;;
12271;SDS011;6198;51.446;6.698;2023-05-16T04:42:03;23.47;;;4.57;;
12271;SDS011;6198;51.446;6.698;2023-05-16T04:44:29;15.50;;;4.10;;
12271;SDS011;6198;51.446;6.698;2023-05-16T04:46:55;27.10;;;4.20;;
12271;SDS011;6198;51.446;6.698;2023-05-16T04:49:21;18.03;;;4.43;;
12271;SDS011;6198;51.446;6.698;2023-05-16T04:51:47;20.50;;;4.30;;
12271;SDS011;6198;51.446;6.698;2023-05-16T04:54:13;17.03;;;3.90;;
12271;SDS011;6198;51.446;6.698;2023-05-16T04:56:39;18.10;;;3.80;;
12271;SDS011;6198;51.446;6.698;2023-05-16T04:59:06;15.60;;;3.60;;
12271;SDS011;6198;51.446;6.698;2023-05-16T05:01:32;18.63;;;3.70;;
12271;SDS011;6198;51.446;6.698;2023-05-16T05:03:58;23.93;;;4.53;;
12271;SDS011;6198;51.446;6.698;2023-05-16T05:06:24;16.53;;;4.17;;
12271;SDS011;6198;51.446;6.698;2023-05-16T05:08:50;12.50;;;3.23;;
12271;SDS011;6198;51.446;6.698;2023-05-16T05:11:16;12.13;;;3.57;;
12271;SDS011;6198;51.446;6.698;2023-05-16T05:13:42;17.00;;;3.80;;
12271;SDS011;6198;51.446;6.698;2023-05-16T05:16:08;18.37;;;3.83;;
12271;SDS011;6198;51.446;6.698;2023-05-16T05:18:34;15.47;;;3.60;;
12271;SDS011;6198;51.446;6.698;2023-05-16T05:21:00;18.83;;;4.23;;
12271;SDS011;6198;51.446;6.698;2023-05-16T05:23:26;13.47;;;3.77;;
12271;SDS011;6198;51.446;6.698;2023-05-16T05:25:52;14.83;;;4.07;;
12271;SDS011;6198;51.446;6.698;2023-05-16T05:28:18;17.10;;;3.13;;
12271;SDS011;6198;51.446;6.698;2023-05-16T05:30:44;12.07;;;3.70;;
12271;SDS011;6198;51.446;6.698;2023-05-16T05:33:13;11.67;;;3.03;;
12271;SDS011;6198;51.446;6.698;2023-05-16T05:35:41;15.97;;;3.37;;
12271;SDS011;6198;51.446;6.698;2023-05-16T05:38:07;14.53;;;3.37;;
12271;SDS011;6198;51.446;6.698;2023-05-16T05:40:33;14.77;;;3.47;;
12271;SDS011;6198;51.446;6.698;2023-05-16T05:42:59;20.47;;;3.43;;
12271;SDS011;6198;51.446;6.698;2023-05-16T05:45:25;15.53;;;3.30;;
12271;SDS011;6198;51.446;6.698;2023-05-16T05:47:51;11.67;;;3.33;;
12271;SDS011;6198;51.446;6.698;2023-05-16T05:50:17;17.97;;;3.73;;
12271;SDS011;6198;51.446;6.698;2023-05-16T05:52:43;13.63;;;4.00;;
12271;SDS011;6198;51.446;6.698;2023-05-16T05:55:09;11.67;;;3.60;;
12271;SDS011;6198;51.446;6.698;2023-05-16T05:57:35;19.00;;;3.53;;
12271;SDS011;6198;51.446;6.698;2023-05-16T06:00:01;22.03;;;4.00;;
12271;SDS011;6198;51.446;6.698;2023-05-16T06:02:29;12.13;;;3.70;;
12271;SDS011;6198;51.446;6.698;2023-05-16T06:04:55;20.67;;;4.03;;
12271;SDS011;6198;51.446;6.698;2023-05-16T06:07:21;15.73;;;3.57;;
12271;SDS011;6198;51.446;6.698;2023-05-16T06:09:46;14.73;;;3.60;;
12271;SDS011;6198;51.446;6.698;2023-05-16T06:12:12;13.80;;;3.27;;
12271;SDS011;6198;51.446;6.698;2023-05-16T06:14:39;17.00;;;4.20;;
12271;SDS011;6198;51.446;6.698;2023-05-16T06:17:05;10.50;;;3.07;;
12271;SDS011;6198;51.446;6.698;2023-05-16T06:19:31;12.53;;;3.33;;
12271;SDS011;6198;51.446;6.698;2023-05-16T06:21:57;11.73;;;2.90;;
12271;SDS011;6198;51.446;6.698;2023-05-16T06:24:22;15.73;;;3.47;;
12271;SDS011;6198;51.446;6.698;2023-05-16T06:26:48;14.50;;;3.90;;
12271;SDS011;6198;51.446;6.698;2023-05-16T06:29:15;12.87;;;3.23;;
12271;SDS011;6198;51.446;6.698;2023-05-16T06:31:41;15.90;;;3.23;;
12271;SDS011;6198;51.446;6.698;2023-05-16T06:34:07;9.73;;;3.23;;
12271;SDS011;6198;51.446;6.698;2023-05-16T06:36:33;12.43;;;2.90;;
12271;SDS011;6198;51.446;6.698;2023-05-16T06:38:59;14.57;;;3.17;;
12271;SDS011;6198;51.446;6.698;2023-05-16T06:41:25;13.33;;;3.50;;
12271;SDS011;6198;51.446;6.698;2023-05-16T06:43:51;9.03;;;3.13;;
12271;SDS011;6198;51.446;6.698;2023-05-16T06:46:17;11.33;;;2.53;;
12271;SDS011;6198;51.446;6.698;2023-05-16T06:48:43;10.43;;;2.80;;
12271;SDS011;6198;51.446;6.698;2023-05-16T06:51:09;8.10;;;2.93;;
12271;SDS011;6198;51.446;6.698;2023-05-16T06:53:35;10.30;;;2.90;;
12271;SDS011;6198;51.446;6.698;2023-05-16T06:56:01;8.60;;;2.40;;
12271;SDS011;6198;51.446;6.698;2023-05-16T06:58:27;11.27;;;2.80;;
12271;SDS011;6198;51.446;6.698;2023-05-16T07:00:53;12.93;;;3.20;;
12271;SDS011;6198;51.446;6.698;2023-05-16T07:03:18;8.97;;;2.70;;
12271;SDS011;6198;51.446;6.698;2023-05-16T07:05:45;10.33;;;2.80;;
12271;SDS011;6198;51.446;6.698;2023-05-16T07:08:11;10.77;;;2.60;;
12271;SDS011;6198;51.446;6.698;2023-05-16T07:10:37;10.20;;;2.93;;
12271;SDS011;6198;51.446;6.698;2023-05-16T07:13:03;10.60;;;3.17;;
12271;SDS011;6198;51.446;6.698;2023-05-16T07:15:30;10.80;;;2.93;;
12271;SDS011;6198;51.446;6.698;2023-05-16T07:17:56;10.20;;;2.80;;
12271;SDS011;6198;51.446;6.698;2023-05-16T07:20:22;10.60;;;2.80;;
12271;SDS011;6198;51.446;6.698;2023-05-16T07:22:48;8.40;;;2.30;;
12271;SDS011;6198;51.446;6.698;2023-05-16T07:25:14;10.20;;;2.30;;
12271;SDS011;6198;51.446;6.698;2023-05-16T07:27:40;5.40;;;1.90;;
12271;SDS011;6198;51.446;6.698;2023-05-16T07:30:09;10.73;;;2.73;;
12271;SDS011;6198;51.446;6.698;2023-05-16T07:32:35;11.47;;;2.73;;
12271;SDS011;6198;51.446;6.698;2023-05-16T07:35:01;15.30;;;3.03;;
12271;SDS011;6198;51.446;6.698;2023-05-16T07:37:27;9.40;;;2.47;;
12271;SDS011;6198;51.446;6.698;2023-05-16T07:39:53;14.10;;;3.20;;
12271;SDS011;6198;51.446;6.698;2023-05-16T07:42:19;8.33;;;2.70;;
12271;SDS011;6198;51.446;6.698;2023-05-16T07:44:45;7.90;;;2.53;;
12271;SDS011;6198;51.446;6.698;2023-05-16T07:47:11;7.57;;;2.07;;
12271;SDS011;6198;51.446;6.698;2023-05-16T07:49:37;16.33;;;2.90;;
12271;SDS011;6198;51.446;6.698;2023-05-16T07:52:03;5.90;;;2.40;;
12271;SDS011;6198;51.446;6.698;2023-05-16T07:54:30;8.93;;;2.37;;
12271;SDS011;6198;51.446;6.698;2023-05-16T07:56:56;8.40;;;2.90;;
12271;SDS011;6198;51.446;6.698;2023-05-16T07:59:22;9.87;;;2.47;;
12271;SDS011;6198;51.446;6.698;2023-05-16T08:01:48;14.03;;;2.60;;
12271;SDS011;6198;51.446;6.698;2023-05-16T08:04:14;8.23;;;2.93;;
12271;SDS011;6198;51.446;6.698;2023-05-16T08:06:40;10.33;;;2.60;;
12271;SDS011;6198;51.446;6.698;2023-05-16T08:09:05;8.53;;;2.50;;
12271;SDS011;6198;51.446;6.698;2023-05-16T08:11:33;10.47;;;2.50;;
12271;SDS011;6198;51.446;6.698;2023-05-16T08:13:59;6.17;;;2.90;;
12271;SDS011;6198;51.446;6.698;2023-05-16T08:16:25;13.93;;;3.10;;
12271;SDS011;6198;51.446;6.698;2023-05-16T08:18:51;8.67;;;2.73;;
12271;SDS011;6198;51.446;6.698;2023-05-16T08:21:17;6.10;;;2.60;;
12271;SDS011;6198;51.446;6.698;2023-05-16T08:23:43;10.60;;;2.30;;
12271;SDS011;6198;51.446;6.698;2023-05-16T08:26:09;13.10;;;2.90;;
12271;SDS011;6198;51.446;6.698;2023-05-16T08:28:35;10.57;;;2.33;;
12271;SDS011;6198;51.446;6.698;2023-05-16T08:31:01;14.10;;;2.63;;
12271;SDS011;6198;51.446;6.698;2023-05-16T08:33:27;7.43;;;2.50;;
12271;SDS011;6198;51.446;6.698;2023-05-16T08:35:53;11.83;;;2.70;;
12271;SDS011;6198;51.446;6.698;2023-05-16T08:38:19;8.40;;;2.50;;
12271;SDS011;6198;51.446;6.698;2023-05-16T08:40:46;8.93;;;2.50;;
12271;SDS011;6198;51.446;6.698;2023-05-16T08:43:12;6.80;;;2.37;;
12271;SDS011;6198;51.446;6.698;2023-05-16T08:45:39;8.97;;;2.37;;
12271;SDS011;6198;51.446;6.698;2023-05-16T08:48:06;5.90;;;2.37;;
12271;SDS011;6198;51.446;6.698;2023-05-16T08:50:32;7.60;;;1.93;;
12271;SDS011;6198;51.446;6.698;2023-05-16T08:53:02;6.37;;;2.30;;
12271;SDS011;6198;51.446;6.698;2023-05-16T08:55:30;8.23;;;2.83;;
12271;SDS011;6198;51.446;6.698;2023-05-16T08:57:57;6.40;;;2.17;;
12271;SDS011;6198;51.446;6.698;2023-05-16T09:00:23;10.60;;;2.20;;
12271;SDS011;6198;51.446;6.698;2023-05-16T09:02:49;9.40;;;2.27;;
12271;SDS011;6198;51.446;6.698;2023-05-16T09:05:16;7.07;;;2.27;;
12271;SDS011;6198;51.446;6.698;2023-05-16T09:07:42;9.07;;;2.23;;
12271;SDS011;6198;51.446;6.698;2023-05-16T09:10:08;12.60;;;2.40;;
12271;SDS011;6198;51.446;6.698;2023-05-16T09:12:35;8.40;;;2.00;;
12271;SDS011;6198;51.446;6.698;2023-05-16T09:15:02;8.77;;;2.30;;
12271;SDS011;6198;51.446;6.698;2023-05-16T09:17:35;4.20;;;1.87;;
12271;SDS011;6198;51.446;6.698;2023-05-16T09:22:35;5.90;;;2.57;;
12271;SDS011;6198;51.446;6.698;2023-05-16T09:25:01;8.70;;;2.40;;
12271;SDS011;6198;51.446;6.698;2023-05-16T09:27:29;7.33;;;2.27;;
12271;SDS011;6198;51.446;6.698;2023-05-16T09:29:56;12.07;;;2.43;;
12271;SDS011;6198;51.446;6.698;2023-05-16T09:32:22;7.50;;;2.50;;
12271;SDS011;6198;51.446;6.698;2023-05-16T09:34:48;5.97;;;2.10;;
12271;SDS011;6198;51.446;6.698;2023-05-16T09:37:15;5.57;;;2.50;;
12271;SDS011;6198;51.446;6.698;2023-05-16T09:39:45;7.77;;;2.40;;
12271;SDS011;6198;51.446;6.698;2023-05-16T09:42:12;7.27;;;2.30;;
12271;SDS011;6198;51.446;6.698;2023-05-16T09:44:38;5.17;;;1.90;;
12271;SDS011;6198;51.446;6.698;2023-05-16T09:47:04;6.40;;;2.17;;
12271;SDS011;6198;51.446;6.698;2023-05-16T09:49:31;6.30;;;2.50;;
12271;SDS011;6198;51.446;6.698;2023-05-16T09:52:00;5.73;;;2.00;;
12271;SDS011;6198;51.446;6.698;2023-05-16T09:54:33;7.53;;;2.77;;
12271;SDS011;6198;51.446;6.698;2023-05-16T09:56:59;13.50;;;2.93;;
12271;SDS011;6198;51.446;6.698;2023-05-16T09:59:43;11.60;;;3.33;;
12271;SDS011;6198;51.446;6.698;2023-05-16T10:02:10;11.40;;;3.63;;
12271;SDS011;6198;51.446;6.698;2023-05-16T10:04:37;7.33;;;2.60;;
12271;SDS011;6198;51.446;6.698;2023-05-16T10:07:03;7.60;;;2.63;;
12271;SDS011;6198;51.446;6.698;2023-05-16T10:09:32;11.00;;;2.83;;
12271;SDS011;6198;51.446;6.698;2023-05-16T10:12:02;5.37;;;2.10;;
12271;SDS011;6198;51.446;6.698;2023-05-16T10:14:29;10.67;;;4.57;;
12271;SDS011;6198;51.446;6.698;2023-05-16T10:16:55;7.23;;;2.40;;
12271;SDS011;6198;51.446;6.698;2023-05-16T10:19:22;9.10;;;2.60;;
12271;SDS011;6198;51.446;6.698;2023-05-16T10:21:50;9.37;;;2.20;;
12271;SDS011;6198;51.446;6.698;2023-05-16T10:24:22;4.73;;;2.07;;
12271;SDS011;6198;51.446;6.698;2023-05-16T10:26:49;8.90;;;2.90;;
12271;SDS011;6198;51.446;6.698;2023-05-16T10:29:16;7.33;;;2.20;;
12271;SDS011;6198;51.446;6.698;2023-05-16T10:31:42;5.00;;;1.90;;
12271;SDS011;6198;51.446;6.698;2023-05-16T10:34:09;11.03;;;2.37;;
12271;SDS011;6198;51.446;6.698;2023-05-16T10:36:35;6.77;;;1.93;;
12271;SDS011;6198;51.446;6.698;2023-05-16T10:39:02;8.00;;;2.30;;
12271;SDS011;6198;51.446;6.698;2023-05-16T10:41:28;6.27;;;2.20;;
12271;SDS011;6198;51.446;6.698;2023-05-16T10:43:55;7.23;;;2.43;;
12271;SDS011;6198;51.446;6.698;2023-05-16T10:46:22;7.80;;;2.00;;
12271;SDS011;6198;51.446;6.698;2023-05-16T10:48:48;5.97;;;2.27;;
12271;SDS011;6198;51.446;6.698;2023-05-16T10:54:03;9.03;;;4.17;;
12271;SDS011;6198;51.446;6.698;2023-05-16T10:56:30;14.50;;;6.37;;
12271;SDS011;6198;51.446;6.698;2023-05-16T10:58:58;4.57;;;2.27;;
12271;SDS011;6198;51.446;6.698;2023-05-16T11:01:28;7.23;;;2.83;;
12271;SDS011;6198;51.446;6.698;2023-05-16T11:14:03;2.73;;;1.90;;
12271;SDS011;6198;51.446;6.698;2023-05-16T11:16:29;5.35;;;2.10;;
12271;SDS011;6198;51.446;6.698;2023-05-16T11:19:02;4.90;;;2.23;;
12271;SDS011;6198;51.446;6.698;2023-05-16T11:24:29;5.67;;;1.70;;
12271;SDS011;6198;51.446;6.698;2023-05-16T11:26:55;4.13;;;1.77;;
12271;SDS011;6198;51.446;6.698;2023-05-16T11:29:21;3.93;;;1.53;;
12271;SDS011;6198;51.446;6.698;2023-05-16T11:31:48;7.50;;;1.60;;
12271;SDS011;6198;51.446;6.698;2023-05-16T11:34:14;6.77;;;1.87;;
12271;SDS011;6198;51.446;6.698;2023-05-16T11:36:40;2.60;;;1.37;;
12271;SDS011;6198;51.446;6.698;2023-05-16T11:39:06;6.03;;;1.87;;
12271;SDS011;6198;51.446;6.698;2023-05-16T11:41:36;6.07;;;2.10;;
12271;SDS011;6198;51.446;6.698;2023-05-16T11:44:02;5.73;;;1.77;;
12271;SDS011;6198;51.446;6.698;2023-05-16T11:46:29;6.17;;;2.03;;
12271;SDS011;6198;51.446;6.698;2023-05-16T11:48:55;6.67;;;2.10;;
12271;SDS011;6198;51.446;6.698;2023-05-16T11:51:21;6.57;;;2.10;;
12271;SDS011;6198;51.446;6.698;2023-05-16T11:53:48;3.80;;;1.70;;
12271;SDS011;6198;51.446;6.698;2023-05-16T11:56:14;5.00;;;1.70;;
12271;SDS011;6198;51.446;6.698;2023-05-16T11:58:40;4.80;;;1.60;;
12271;SDS011;6198;51.446;6.698;2023-05-16T12:01:06;3.80;;;1.80;;
12271;SDS011;6198;51.446;6.698;2023-05-16T12:03:33;4.23;;;1.40;;
12271;SDS011;6198;51.446;6.698;2023-05-16T12:06:00;3.60;;;1.60;;
12271;SDS011;6198;51.446;6.698;2023-05-16T12:08:27;7.73;;;1.63;;
12271;SDS011;6198;51.446;6.698;2023-05-16T12:10:52;5.57;;;1.97;;
12271;SDS011;6198;51.446;6.698;2023-05-16T12:13:19;2.77;;;1.63;;
12271;SDS011;6198;51.446;6.698;2023-05-16T12:15:45;5.60;;;1.40;;
12271;SDS011;6198;51.446;6.698;2023-05-16T12:18:12;2.63;;;1.30;;
12271;SDS011;6198;51.446;6.698;2023-05-16T12:20:38;3.00;;;1.30;;
12271;SDS011;6198;51.446;6.698;2023-05-16T12:23:04;3.20;;;1.20;;
12271;SDS011;6198;51.446;6.698;2023-05-16T12:25:31;2.13;;;1.30;;
12271;SDS011;6198;51.446;6.698;2023-05-16T12:27:58;1.90;;;1.17;;
12271;SDS011;6198;51.446;6.698;2023-05-16T12:30:25;2.33;;;1.33;;
12271;SDS011;6198;51.446;6.698;2023-05-16T12:33:03;1.93;;;1.17;;
12271;SDS011;6198;51.446;6.698;2023-05-16T12:35:33;4.50;;;1.23;;
12271;SDS011;6198;51.446;6.698;2023-05-16T12:38:02;1.23;;;1.13;;
12271;SDS011;6198;51.446;6.698;2023-05-16T12:40:29;5.03;;;1.33;;
12271;SDS011;6198;51.446;6.698;2023-05-16T12:42:55;2.90;;;1.40;;
12271;SDS011;6198;51.446;6.698;2023-05-16T12:45:22;2.60;;;1.43;;
12271;SDS011;6198;51.446;6.698;2023-05-16T12:47:48;4.17;;;1.80;;
12271;SDS011;6198;51.446;6.698;2023-05-16T12:50:14;3.63;;;1.60;;
12271;SDS011;6198;51.446;6.698;2023-05-16T12:55:16;2.43;;;1.40;;
12271;SDS011;6198;51.446;6.698;2023-05-16T12:57:42;5.23;;;1.53;;
12271;SDS011;6198;51.446;6.698;2023-05-16T13:00:09;5.77;;;1.80;;
12271;SDS011;6198;51.446;6.698;2023-05-16T13:05:02;3.30;;;1.70;;
12271;SDS011;6198;51.446;6.698;2023-05-16T13:07:28;2.90;;;1.50;;
12271;SDS011;6198;51.446;6.698;2023-05-16T13:09:54;2.23;;;1.20;;
12271;SDS011;6198;51.446;6.698;2023-05-16T13:12:20;4.90;;;1.33;;
12271;SDS011;6198;51.446;6.698;2023-05-16T13:14:50;8.83;;;2.33;;
12271;SDS011;6198;51.446;6.698;2023-05-16T13:17:16;6.30;;;1.90;;
12271;SDS011;6198;51.446;6.698;2023-05-16T13:19:42;3.23;;;1.90;;
12271;SDS011;6198;51.446;6.698;2023-05-16T13:22:08;4.40;;;1.43;;
12271;SDS011;6198;51.446;6.698;2023-05-16T13:24:34;3.10;;;1.60;;
12271;SDS011;6198;51.446;6.698;2023-05-16T13:27:00;3.00;;;1.70;;
12271;SDS011;6198;51.446;6.698;2023-05-16T13:29:27;4.10;;;1.60;;
12271;SDS011;6198;51.446;6.698;2023-05-16T13:31:52;2.53;;;1.57;;
12271;SDS011;6198;51.446;6.698;2023-05-16T13:34:18;4.67;;;2.00;;
12271;SDS011;6198;51.446;6.698;2023-05-16T13:36:44;5.37;;;1.83;;
12271;SDS011;6198;51.446;6.698;2023-05-16T13:39:11;4.57;;;2.03;;
12271;SDS011;6198;51.446;6.698;2023-05-16T13:41:37;3.87;;;1.73;;
12271;SDS011;6198;51.446;6.698;2023-05-16T13:44:04;5.80;;;2.10;;
12271;SDS011;6198;51.446;6.698;2023-05-16T13:46:30;3.97;;;2.03;;
12271;SDS011;6198;51.446;6.698;2023-05-16T13:48:56;7.40;;;2.10;;
12271;SDS011;6198;51.446;6.698;2023-05-16T13:51:22;7.17;;;2.10;;
12271;SDS011;6198;51.446;6.698;2023-05-16T13:53:48;4.83;;;2.07;;
12271;SDS011;6198;51.446;6.698;2023-05-16T13:56:14;2.93;;;1.73;;
12271;SDS011;6198;51.446;6.698;2023-05-16T13:58:40;6.17;;;2.10;;
12271;SDS011;6198;51.446;6.698;2023-05-16T14:01:06;3.43;;;2.37;;
12271;SDS011;6198;51.446;6.698;2023-05-16T14:03:32;4.63;;;2.33;;
12271;SDS011;6198;51.446;6.698;2023-05-16T14:06:00;3.73;;;2.20;;
12271;SDS011;6198;51.446;6.698;2023-05-16T14:08:26;2.60;;;1.80;;
12271;SDS011;6198;51.446;6.698;2023-05-16T14:10:53;4.10;;;2.47;;
12271;SDS011;6198;51.446;6.698;2023-05-16T14:13:19;3.63;;;2.40;;
12271;SDS011;6198;51.446;6.698;2023-05-16T14:15:45;10.13;;;2.20;;
12271;SDS011;6198;51.446;6.698;2023-05-16T14:18:11;5.30;;;2.47;;
12271;SDS011;6198;51.446;6.698;2023-05-16T14:20:37;5.53;;;2.03;;
12271;SDS011;6198;51.446;6.698;2023-05-16T14:23:03;4.53;;;2.13;;
12271;SDS011;6198;51.446;6.698;2023-05-16T14:25:29;4.07;;;2.20;;
12271;SDS011;6198;51.446;6.698;2023-05-16T14:27:55;3.97;;;2.60;;
12271;SDS011;6198;51.446;6.698;2023-05-16T14:30:21;3.53;;;2.07;;
12271;SDS011;6198;51.446;6.698;2023-05-16T14:32:47;5.93;;;2.40;;
12271;SDS011;6198;51.446;6.698;2023-05-16T14:35:13;4.40;;;2.50;;
12271;SDS011;6198;51.446;6.698;2023-05-16T14:37:39;5.63;;;2.40;;
12271;SDS011;6198;51.446;6.698;2023-05-16T14:40:06;6.77;;;2.47;;
12271;SDS011;6198;51.446;6.698;2023-05-16T14:42:33;10.50;;;3.00;;
12271;SDS011;6198;51.446;6.698;2023-05-16T14:44:59;4.67;;;2.40;;
12271;SDS011;6198;51.446;6.698;2023-05-16T14:47:25;5.50;;;2.37;;
12271;SDS011;6198;51.446;6.698;2023-05-16T14:49:52;7.93;;;2.23;;
12271;SDS011;6198;51.446;6.698;2023-05-16T14:52:20;6.47;;;3.03;;
12271;SDS011;6198;51.446;6.698;2023-05-16T14:54:46;4.90;;;2.10;;
12271;SDS011;6198;51.446;6.698;2023-05-16T14:57:12;4.93;;;2.53;;
12271;SDS011;6198;51.446;6.698;2023-05-16T14:59:38;4.90;;;2.50;;
12271;SDS011;6198;51.446;6.698;2023-05-16T15:02:04;5.90;;;2.67;;
12271;SDS011;6198;51.446;6.698;2023-05-16T15:04:31;7.57;;;2.13;;
12271;SDS011;6198;51.446;6.698;2023-05-16T15:06:57;4.70;;;2.50;;
12271;SDS011;6198;51.446;6.698;2023-05-16T15:09:23;8.57;;;2.33;;
12271;SDS011;6198;51.446;6.698;2023-05-16T15:11:49;4.87;;;2.33;;
12271;SDS011;6198;51.446;6.698;2023-05-16T15:14:14;4.33;;;2.33;;
12271;SDS011;6198;51.446;6.698;2023-05-16T15:16:41;8.00;;;2.97;;
12271;SDS011;6198;51.446;6.698;2023-05-16T15:19:07;5.67;;;2.30;;
12271;SDS011;6198;51.446;6.698;2023-05-16T15:21:33;8.40;;;2.37;;
12271;SDS011;6198;51.446;6.698;2023-05-16T15:23:59;6.90;;;2.30;;